createdAt,value
2018-09-05T00:02:14.368Z,33.80
2018-09-05T00:04:42.770Z,33.60
2018-09-05T00:07:11.053Z,34.93
2018-09-05T00:09:39.405Z,34.50
2018-09-05T00:12:07.737Z,37.17
2018-09-05T00:14:36.105Z,35.27
2018-09-05T00:17:04.498Z,36.50
2018-09-05T00:19:32.808Z,36.13
2018-09-05T00:22:01.154Z,34.93
2018-09-05T00:24:29.506Z,36.83
2018-09-05T00:26:57.828Z,38.30
2018-09-05T00:29:26.281Z,38.67
2018-09-05T00:31:54.673Z,36.83
2018-09-05T00:34:23.000Z,37.43
2018-09-05T00:36:51.393Z,39.00
2018-09-05T00:39:19.724Z,39.87
2018-09-05T00:41:48.186Z,38.50
2018-09-05T00:44:16.468Z,38.63
2018-09-05T00:46:44.898Z,39.40
2018-09-05T00:49:13.340Z,39.00
2018-09-05T00:51:41.712Z,40.37
2018-09-05T00:54:10.091Z,39.30
2018-09-05T00:56:38.485Z,38.53
2018-09-05T00:59:06.836Z,40.70
2018-09-05T01:01:35.127Z,40.67
2018-09-05T01:04:03.694Z,41.33
2018-09-05T01:06:31.961Z,44.33
2018-09-05T01:09:00.270Z,42.20
2018-09-05T01:11:28.617Z,43.90
2018-09-05T01:13:56.941Z,44.60
2018-09-05T01:16:25.255Z,44.80
2018-09-05T01:18:53.580Z,44.30
2018-09-05T01:21:22.245Z,45.50
2018-09-05T01:23:50.602Z,46.80
2018-09-05T01:26:18.954Z,47.13
2018-09-05T01:28:47.286Z,49.23
2018-09-05T01:31:15.628Z,49.63
2018-09-05T01:33:43.957Z,48.87
2018-09-05T01:36:15.190Z,47.67
2018-09-05T01:38:43.879Z,49.03
2018-09-05T01:41:13.573Z,51.13
2018-09-05T01:43:42.602Z,50.30
2018-09-05T01:46:11.087Z,50.13
2018-09-05T01:48:39.746Z,49.37
2018-09-05T01:51:08.107Z,50.73
2018-09-05T01:53:36.554Z,50.63
2018-09-05T01:56:04.879Z,49.23
2018-09-05T01:58:33.258Z,50.43
2018-09-05T02:01:01.613Z,54.00
2018-09-05T02:03:30.809Z,51.83
2018-09-05T02:05:59.240Z,51.13
2018-09-05T02:08:27.852Z,52.33
2018-09-05T02:10:56.101Z,53.30
2018-09-05T02:13:24.574Z,52.93
2018-09-05T02:15:52.937Z,54.33
2018-09-05T02:18:21.356Z,52.80
2018-09-05T02:20:49.733Z,51.57
2018-09-05T02:23:18.080Z,53.53
2018-09-05T02:25:46.407Z,52.20
2018-09-05T02:28:14.829Z,53.53
2018-09-05T02:30:43.153Z,52.27
2018-09-05T02:33:11.578Z,53.33
2018-09-05T02:35:39.989Z,54.17
2018-09-05T02:38:09.300Z,54.47
2018-09-05T02:40:37.677Z,53.63
2018-09-05T02:43:06.132Z,55.97
2018-09-05T02:45:34.451Z,54.40
2018-09-05T02:48:02.761Z,56.43
2018-09-05T02:50:31.183Z,53.83
2018-09-05T02:52:59.507Z,54.93
2018-09-05T02:55:33.102Z,55.30
2018-09-05T02:58:01.597Z,53.60
2018-09-05T03:00:29.959Z,54.47
2018-09-05T03:02:58.225Z,52.93
2018-09-05T03:05:26.532Z,53.10
2018-09-05T03:07:54.853Z,54.30
2018-09-05T03:10:23.275Z,54.50
2018-09-05T03:12:51.693Z,52.67
2018-09-05T03:15:20.070Z,53.90
2018-09-05T03:17:48.464Z,54.57
2018-09-05T03:20:16.861Z,54.53
2018-09-05T03:22:45.388Z,53.53
2018-09-05T03:25:13.712Z,54.93
2018-09-05T03:27:42.066Z,53.30
2018-09-05T03:30:10.800Z,53.47
2018-09-05T03:32:39.218Z,55.00
2018-09-05T03:35:07.678Z,53.30
2018-09-05T03:37:36.041Z,53.67
2018-09-05T03:40:04.366Z,54.67
2018-09-05T03:42:32.831Z,56.33
2018-09-05T03:45:01.318Z,54.77
2018-09-05T03:47:29.987Z,55.80
2018-09-05T03:49:58.400Z,56.20
2018-09-05T03:52:26.848Z,56.70
2018-09-05T03:54:55.182Z,56.20
2018-09-05T03:57:23.553Z,56.33
2018-09-05T03:59:52.102Z,57.40
2018-09-05T04:02:20.476Z,56.53
2018-09-05T04:04:48.974Z,54.43
2018-09-05T04:07:17.394Z,56.27
2018-09-05T04:09:45.771Z,56.40
2018-09-05T04:12:14.350Z,56.00
2018-09-05T04:14:42.808Z,57.77
2018-09-05T04:17:11.186Z,57.40
2018-09-05T04:19:39.627Z,57.17
2018-09-05T04:22:07.984Z,56.13
2018-09-05T04:24:36.363Z,56.17
2018-09-05T04:27:04.820Z,57.77
2018-09-05T04:29:33.259Z,55.93
2018-09-05T04:32:01.709Z,56.37
2018-09-05T04:34:30.110Z,58.90
2018-09-05T04:36:58.499Z,56.90
2018-09-05T04:39:26.862Z,59.27
2018-09-05T04:41:55.309Z,57.37
2018-09-05T04:44:23.672Z,58.73
2018-09-05T04:46:52.024Z,58.90
2018-09-05T04:49:20.407Z,60.70
2018-09-05T04:51:48.802Z,59.90
2018-09-05T04:54:17.248Z,57.70
2018-09-05T04:56:45.648Z,56.60
2018-09-05T04:59:14.004Z,59.57
2018-09-05T05:01:42.336Z,58.17
2018-09-05T05:04:10.747Z,57.53
2018-09-05T05:06:39.140Z,60.57
2018-09-05T05:09:10.999Z,60.00
2018-09-05T05:11:40.328Z,60.33
2018-09-05T05:14:08.871Z,60.43
2018-09-05T05:16:37.276Z,57.63
2018-09-05T05:19:06.165Z,58.30
2018-09-05T05:21:34.623Z,57.63
2018-09-05T05:24:02.997Z,56.63
2018-09-05T05:26:31.386Z,51.53
2018-09-05T05:28:59.813Z,51.20
2018-09-05T05:31:28.372Z,51.93
2018-09-05T05:33:56.757Z,51.60
2018-09-05T05:36:25.233Z,48.37
2018-09-05T05:38:53.688Z,48.33
2018-09-05T05:41:22.115Z,45.47
2018-09-05T05:43:51.239Z,42.80
2018-09-05T05:46:19.816Z,42.67
2018-09-05T05:48:48.274Z,38.77
2018-09-05T05:51:16.765Z,36.13
2018-09-05T05:53:45.250Z,36.83
2018-09-05T05:56:13.596Z,33.87
2018-09-05T05:58:42.059Z,34.43
2018-09-05T06:01:10.568Z,35.60
2018-09-05T06:03:38.947Z,39.30
2018-09-05T06:06:07.066Z,42.87
2018-09-05T06:08:36.974Z,42.67
2018-09-05T06:11:06.125Z,41.07
2018-09-05T06:13:34.534Z,39.23
2018-09-05T06:16:02.921Z,38.13
2018-09-05T06:18:31.473Z,39.00
2018-09-05T06:21:00.187Z,39.40
2018-09-05T06:23:29.545Z,38.07
2018-09-05T06:25:57.923Z,35.83
2018-09-05T06:28:26.749Z,33.83
2018-09-05T06:30:55.149Z,34.97
2018-09-05T06:33:23.551Z,34.03
2018-09-05T06:35:52.021Z,33.03
2018-09-05T06:38:20.472Z,34.97
2018-09-05T06:40:48.813Z,32.07
2018-09-05T06:43:17.149Z,31.27
2018-09-05T06:45:45.526Z,31.90
2018-09-05T06:48:13.891Z,33.47
2018-09-05T06:50:42.240Z,34.33
2018-09-05T06:53:10.626Z,34.17
2018-09-05T06:55:39.071Z,34.63
2018-09-05T06:58:07.540Z,35.07
2018-09-05T07:00:35.867Z,36.30
2018-09-05T07:03:04.303Z,35.80
2018-09-05T07:05:32.796Z,34.60
2018-09-05T07:08:01.205Z,33.07
2018-09-05T07:10:29.657Z,30.97
2018-09-05T07:12:58.225Z,31.77
2018-09-05T07:15:26.648Z,31.57
2018-09-05T07:17:55.088Z,32.77
2018-09-05T07:20:23.508Z,30.53
2018-09-05T07:22:52.056Z,30.77
2018-09-05T07:25:20.441Z,30.60
2018-09-05T07:27:48.905Z,30.73
2018-09-05T07:30:17.905Z,29.90
2018-09-05T07:32:46.647Z,27.87
2018-09-05T07:35:15.083Z,29.67
2018-09-05T07:37:43.507Z,28.53
2018-09-05T07:40:12.028Z,27.63
2018-09-05T07:42:40.512Z,28.07
2018-09-05T07:45:08.926Z,28.13
2018-09-05T07:47:37.808Z,25.93
2018-09-05T07:50:06.706Z,24.53
2018-09-05T07:52:35.204Z,27.40
2018-09-05T07:55:03.560Z,26.57
2018-09-05T07:57:31.987Z,25.73
2018-09-05T08:00:00.392Z,27.77
2018-09-05T08:02:28.725Z,27.13
2018-09-05T08:04:57.193Z,27.53
2018-09-05T08:07:25.595Z,30.00
2018-09-05T08:09:54.090Z,31.00
2018-09-05T08:12:22.449Z,31.30
2018-09-05T08:14:50.870Z,32.10
2018-09-05T08:17:19.370Z,30.87
2018-09-05T08:19:47.768Z,27.40
2018-09-05T08:22:16.142Z,28.17
2018-09-05T08:24:44.630Z,27.60
2018-09-05T08:27:13.008Z,26.17
2018-09-05T08:29:41.507Z,25.60
2018-09-05T08:32:10.198Z,25.47
2018-09-05T08:34:38.737Z,21.40
2018-09-05T08:37:07.340Z,21.80
2018-09-05T08:39:35.589Z,21.17
2018-09-05T08:42:04.170Z,19.90
2018-09-05T08:44:32.566Z,20.93
2018-09-05T08:47:00.966Z,19.33
2018-09-05T08:49:29.286Z,18.87
2018-09-05T08:51:57.620Z,16.60
2018-09-05T08:54:25.957Z,16.10
2018-09-05T08:56:54.546Z,14.63
2018-09-05T08:59:23.451Z,12.57
2018-09-05T09:01:51.872Z,12.93
2018-09-05T09:04:20.274Z,15.60
2018-09-05T09:06:48.671Z,13.17
2018-09-05T09:09:17.041Z,11.73
2018-09-05T09:11:45.559Z,10.30
2018-09-05T09:14:15.891Z,10.70
2018-09-05T09:16:44.338Z,11.10
2018-09-05T09:19:12.722Z,10.23
2018-09-05T09:21:41.187Z,11.27
2018-09-05T09:24:09.932Z,10.80
2018-09-05T09:26:38.281Z,11.20
2018-09-05T09:29:06.765Z,13.17
2018-09-05T09:31:35.204Z,11.77
2018-09-05T09:34:03.654Z,12.43
2018-09-05T09:36:33.039Z,14.93
2018-09-05T09:39:02.421Z,13.53
2018-09-05T09:41:30.848Z,13.70
2018-09-05T09:43:59.303Z,12.80
2018-09-05T09:46:28.210Z,12.80
2018-09-05T09:48:56.761Z,12.83
2018-09-05T09:51:25.178Z,11.87
2018-09-05T09:53:54.041Z,12.93
2018-09-05T09:56:22.932Z,14.63
2018-09-05T09:58:51.274Z,14.40
2018-09-05T10:01:24.867Z,13.67
2018-09-05T10:03:58.694Z,14.37
2018-09-05T10:06:32.351Z,14.27
2018-09-05T10:09:06.124Z,14.17
2018-09-05T10:11:39.943Z,14.87
2018-09-05T10:14:10.784Z,14.30
2018-09-05T10:17:42.942Z,14.13
2018-09-05T10:20:11.337Z,13.80
2018-09-05T10:22:40.374Z,15.43
2018-09-05T10:25:08.849Z,14.90
2018-09-05T10:27:37.169Z,15.27
2018-09-05T10:30:05.563Z,14.90
2018-09-05T10:32:33.896Z,15.87
2018-09-05T10:35:02.211Z,15.83
2018-09-05T10:37:30.577Z,14.27
2018-09-05T10:39:58.891Z,15.33
2018-09-05T10:42:27.241Z,18.17
2018-09-05T10:44:55.638Z,17.50
2018-09-05T10:47:23.971Z,18.37
2018-09-05T10:49:52.354Z,17.80
2018-09-05T10:52:20.712Z,17.93
2018-09-05T10:54:49.070Z,17.00
2018-09-05T10:57:18.131Z,17.33
2018-09-05T10:59:46.472Z,18.40
2018-09-05T11:02:15.165Z,18.40
2018-09-05T11:04:43.527Z,17.07
2018-09-05T11:07:11.829Z,17.40
2018-09-05T11:09:40.176Z,16.97
2018-09-05T11:12:08.523Z,17.30
2018-09-05T11:14:36.888Z,16.70
2018-09-05T11:17:05.311Z,17.10
2018-09-05T11:19:33.770Z,16.80
2018-09-05T11:22:02.111Z,16.43
2018-09-05T11:24:30.541Z,15.50
2018-09-05T11:26:58.915Z,15.03
2018-09-05T11:29:27.319Z,14.00
2018-09-05T11:31:55.835Z,14.47
2018-09-05T11:34:24.280Z,14.93
2018-09-05T11:36:52.738Z,14.60
2018-09-05T11:39:21.038Z,13.70
2018-09-05T11:41:49.514Z,15.27
2018-09-05T11:44:17.824Z,15.40
2018-09-05T11:46:46.186Z,15.10
2018-09-05T11:49:14.544Z,15.87
2018-09-05T11:51:42.909Z,15.30
2018-09-05T11:54:11.306Z,16.07
2018-09-05T11:56:39.721Z,15.93
2018-09-05T11:59:08.296Z,16.53
2018-09-05T12:01:36.673Z,17.40
2018-09-05T12:04:05.089Z,16.70
2018-09-05T12:06:33.473Z,18.07
2018-09-05T12:09:01.934Z,17.90
2018-09-05T12:11:30.320Z,18.37
2018-09-05T12:13:58.621Z,17.50
2018-09-05T12:16:26.971Z,17.93
2018-09-05T12:18:55.274Z,18.33
2018-09-05T12:21:23.617Z,17.70
2018-09-05T12:23:51.940Z,17.00
2018-09-05T12:26:20.306Z,18.17
2018-09-05T12:28:48.661Z,16.27
2018-09-05T12:31:17.008Z,17.83
2018-09-05T12:33:45.339Z,17.23
2018-09-05T12:36:13.704Z,16.60
2018-09-05T12:38:42.058Z,16.83
2018-09-05T12:41:10.585Z,15.70
2018-09-05T12:43:39.007Z,16.53
2018-09-05T12:46:07.373Z,16.63
2018-09-05T12:48:35.714Z,15.77
2018-09-05T12:51:04.077Z,15.27
2018-09-05T12:53:32.391Z,16.63
2018-09-05T12:56:00.793Z,16.37
2018-09-05T12:58:29.201Z,16.27
2018-09-05T13:00:59.788Z,17.23
2018-09-05T13:03:29.387Z,16.00
2018-09-05T13:05:59.599Z,17.23
2018-09-05T13:08:28.431Z,17.77
2018-09-05T13:10:56.839Z,17.90
2018-09-05T13:13:25.156Z,16.80
2018-09-05T13:15:53.760Z,17.00
2018-09-05T13:18:22.147Z,16.80
2018-09-05T13:20:50.942Z,17.03
2018-09-05T13:23:19.440Z,17.70
2018-09-05T13:25:47.777Z,17.47
2018-09-05T13:28:16.074Z,18.03
2018-09-05T13:30:45.040Z,18.60
2018-09-05T13:33:13.470Z,17.87
2018-09-05T13:35:41.848Z,19.10
2018-09-05T13:38:10.284Z,18.33
2018-09-05T13:40:38.803Z,19.00
2018-09-05T13:43:07.328Z,17.53
2018-09-05T13:45:35.755Z,17.13
2018-09-05T13:48:04.134Z,17.80
2018-09-05T13:50:32.599Z,15.93
2018-09-05T13:53:00.985Z,16.33
2018-09-05T13:55:29.410Z,16.93
2018-09-05T13:57:57.741Z,15.57
2018-09-05T14:00:26.076Z,14.63
2018-09-05T14:02:54.499Z,15.63
2018-09-05T14:05:22.790Z,15.07
2018-09-05T14:07:51.143Z,15.27
2018-09-05T14:10:19.521Z,14.47
2018-09-05T14:12:47.943Z,13.47
2018-09-05T14:15:16.319Z,15.37
2018-09-05T14:17:44.704Z,14.80
2018-09-05T14:20:13.127Z,13.93
2018-09-05T14:22:41.510Z,14.13
2018-09-05T14:25:10.606Z,13.77
2018-09-05T14:27:38.971Z,13.70
2018-09-05T14:30:07.382Z,15.50
2018-09-05T14:32:35.737Z,14.53
2018-09-05T14:35:04.163Z,14.10
2018-09-05T14:37:32.554Z,13.93
2018-09-05T14:40:00.979Z,13.73
2018-09-05T14:42:29.353Z,11.93
2018-09-05T14:44:57.753Z,12.00
2018-09-05T14:47:26.127Z,12.07
2018-09-05T14:49:54.523Z,11.93
2018-09-05T14:52:22.852Z,11.97
2018-09-05T14:54:51.203Z,11.60
2018-09-05T14:57:19.504Z,10.40
2018-09-05T14:59:48.016Z,9.67
2018-09-05T15:02:16.309Z,9.00
2018-09-05T15:04:44.642Z,9.23
2018-09-05T15:07:13.047Z,9.37
2018-09-05T15:09:41.390Z,9.53
2018-09-05T15:12:09.712Z,8.70
2018-09-05T15:14:38.091Z,8.63
2018-09-05T15:17:06.490Z,8.10
2018-09-05T15:19:34.875Z,8.37
2018-09-05T15:22:03.360Z,10.10
2018-09-05T15:24:31.681Z,11.70
2018-09-05T15:27:00.091Z,11.33
2018-09-05T15:29:28.626Z,11.93
2018-09-05T15:31:57.021Z,11.27
2018-09-05T15:34:27.130Z,11.37
2018-09-05T15:36:55.475Z,11.63
2018-09-05T15:39:23.796Z,11.77
2018-09-05T15:41:52.074Z,11.67
2018-09-05T15:44:20.378Z,13.00
2018-09-05T15:46:48.755Z,11.20
2018-09-05T15:49:18.587Z,11.80
2018-09-05T15:51:46.983Z,12.00
2018-09-05T15:54:15.318Z,11.60
2018-09-05T15:56:43.601Z,11.80
2018-09-05T15:59:11.935Z,11.83
2018-09-05T16:01:40.335Z,12.40
2018-09-05T16:04:08.686Z,12.23
2018-09-05T16:06:38.107Z,12.87
2018-09-05T16:09:07.823Z,12.77
2018-09-05T16:11:36.245Z,14.00
2018-09-05T16:14:04.700Z,15.00
2018-09-05T16:16:34.196Z,15.73
2018-09-05T16:19:02.559Z,16.60
2018-09-05T16:21:30.895Z,15.13
2018-09-05T16:23:59.206Z,15.80
2018-09-05T16:26:27.583Z,16.97
2018-09-05T16:28:55.936Z,17.07
2018-09-05T16:31:24.415Z,18.00
2018-09-05T16:33:52.867Z,18.87
2018-09-05T16:36:21.464Z,19.30
2018-09-05T16:38:50.568Z,18.30
2018-09-05T16:41:19.169Z,20.23
2018-09-05T16:43:47.604Z,20.57
2018-09-05T16:46:16.197Z,19.73
2018-09-05T16:48:44.825Z,21.37
2018-09-05T16:51:13.260Z,20.30
2018-09-05T16:53:41.876Z,20.07
2018-09-05T16:56:10.292Z,21.93
2018-09-05T16:58:38.689Z,22.03
2018-09-05T17:01:09.060Z,22.50
2018-09-05T17:03:37.473Z,22.63
2018-09-05T17:06:05.897Z,22.30
2018-09-05T17:08:34.366Z,23.97
2018-09-05T17:11:02.804Z,24.30
2018-09-05T17:13:31.215Z,24.33
2018-09-05T17:15:59.637Z,22.53
2018-09-05T17:18:28.105Z,23.80
2018-09-05T17:20:56.449Z,23.53
2018-09-05T17:23:25.087Z,24.27
2018-09-05T17:25:53.751Z,23.33
2018-09-05T17:28:22.391Z,23.87
2018-09-05T17:30:50.928Z,23.57
2018-09-05T17:33:19.444Z,22.17
2018-09-05T17:35:47.915Z,21.90
2018-09-05T17:38:16.849Z,21.73
2018-09-05T17:40:46.099Z,22.73
2018-09-05T17:43:14.811Z,18.93
2018-09-05T17:45:43.741Z,21.27
2018-09-05T17:48:13.130Z,21.80
2018-09-05T17:50:42.252Z,22.30
2018-09-05T17:53:10.563Z,22.37
2018-09-05T17:55:38.895Z,22.47
2018-09-05T17:58:07.369Z,21.37
2018-09-05T18:00:35.766Z,22.37
2018-09-05T18:03:04.042Z,22.10
2018-09-05T18:05:32.404Z,21.30
2018-09-05T18:08:00.722Z,21.57
2018-09-05T18:10:29.203Z,21.83
2018-09-05T18:12:57.508Z,21.57
2018-09-05T18:15:25.857Z,21.33
2018-09-05T18:17:54.206Z,21.20
2018-09-05T18:20:22.602Z,21.30
2018-09-05T18:22:51.012Z,21.70
2018-09-05T18:25:19.358Z,21.50
2018-09-05T18:27:47.740Z,23.30
2018-09-05T18:30:16.062Z,22.13
2018-09-05T18:32:45.198Z,23.63
2018-09-05T18:35:13.605Z,24.00
2018-09-05T18:37:42.042Z,25.90
2018-09-05T18:40:10.961Z,25.47
2018-09-05T18:42:39.581Z,26.23
2018-09-05T18:45:08.543Z,26.77
2018-09-05T18:47:37.559Z,27.13
2018-09-05T18:50:06.727Z,27.30
2018-09-05T18:52:42.120Z,26.77
2018-09-05T18:55:10.544Z,28.50
2018-09-05T18:57:47.453Z,28.23
2018-09-05T19:00:15.872Z,27.27
2018-09-05T19:02:45.373Z,27.73
2018-09-05T19:05:14.160Z,28.67
2018-09-05T19:07:42.703Z,29.37
2018-09-05T19:10:12.390Z,30.17
2018-09-05T19:12:41.045Z,30.20
2018-09-05T19:15:09.721Z,28.83
2018-09-05T19:17:38.610Z,30.40
2018-09-05T19:20:06.964Z,29.70
2018-09-05T19:22:35.389Z,28.83
2018-09-05T19:25:03.891Z,29.33
2018-09-05T19:27:32.213Z,29.03
2018-09-05T19:30:00.529Z,28.93
2018-09-05T19:32:29.527Z,28.93
2018-09-05T19:34:58.071Z,27.00
2018-09-05T19:37:26.387Z,27.60
2018-09-05T19:39:54.773Z,26.43
2018-09-05T19:42:23.193Z,25.20
2018-09-05T19:44:51.580Z,22.30
2018-09-05T19:47:19.978Z,22.13
2018-09-05T19:49:48.333Z,21.63
2018-09-05T19:52:16.675Z,21.10
2018-09-05T19:54:45.025Z,20.37
2018-09-05T19:57:14.647Z,19.63
2018-09-05T19:59:42.999Z,18.60
2018-09-05T20:02:11.401Z,17.60
2018-09-05T20:04:39.750Z,18.40
2018-09-05T20:07:08.062Z,17.10
2018-09-05T20:09:37.304Z,16.70
2018-09-05T20:12:06.446Z,16.27
2018-09-05T20:14:36.212Z,16.57
2018-09-05T20:17:05.946Z,15.97
2018-09-05T20:19:35.651Z,14.27
2018-09-05T20:22:04.992Z,15.03
2018-09-05T20:24:33.364Z,15.77
2018-09-05T20:27:01.732Z,15.23
2018-09-05T20:29:30.052Z,16.50
2018-09-05T20:31:58.398Z,15.17
2018-09-05T20:34:26.883Z,14.40
2018-09-05T20:36:55.407Z,15.10
2018-09-05T20:39:23.741Z,15.03
2018-09-05T20:41:52.066Z,15.30
2018-09-05T20:44:20.499Z,15.73
2018-09-05T20:46:49.463Z,15.50
2018-09-05T20:49:17.868Z,17.07
2018-09-05T20:51:47.395Z,16.63
2018-09-05T20:54:15.744Z,17.13
2018-09-05T20:56:44.292Z,17.77
2018-09-05T20:59:12.675Z,17.03
2018-09-05T21:01:41.018Z,18.00
2018-09-05T21:04:09.352Z,19.93
2018-09-05T21:06:37.743Z,17.57
2018-09-05T21:09:07.067Z,19.37
2018-09-05T21:11:35.444Z,19.67
2018-09-05T21:14:03.855Z,19.73
2018-09-05T21:16:32.191Z,18.77
2018-09-05T21:19:00.590Z,19.20
2018-09-05T21:21:28.894Z,18.33
2018-09-05T21:23:57.187Z,18.93
2018-09-05T21:26:25.505Z,17.57
2018-09-05T21:28:53.801Z,18.33
2018-09-05T21:31:22.144Z,16.90
2018-09-05T21:33:50.447Z,16.77
2018-09-05T21:36:18.889Z,17.00
2018-09-05T21:38:47.105Z,16.80
2018-09-05T21:41:15.424Z,17.00
2018-09-05T21:43:43.737Z,16.33
2018-09-05T21:46:12.140Z,16.30
2018-09-05T21:48:40.496Z,15.60
2018-09-05T21:51:08.794Z,16.83
2018-09-05T21:53:37.091Z,15.27
2018-09-05T21:56:05.561Z,16.10
2018-09-05T21:58:33.890Z,16.37
2018-09-05T22:01:02.235Z,15.53
2018-09-05T22:03:30.631Z,14.97
2018-09-05T22:05:58.926Z,15.70
2018-09-05T22:08:27.425Z,15.10
2018-09-05T22:10:55.823Z,16.07
2018-09-05T22:13:24.159Z,16.07
2018-09-05T22:15:52.495Z,15.07
2018-09-05T22:18:20.791Z,15.13
2018-09-05T22:20:49.108Z,15.87
2018-09-05T22:23:17.440Z,15.77
2018-09-05T22:25:45.791Z,15.80
2018-09-05T22:28:14.143Z,15.77
2018-09-05T22:30:42.486Z,16.13
2018-09-05T22:33:10.791Z,15.77
2018-09-05T22:35:39.117Z,16.87
2018-09-05T22:38:07.428Z,16.40
2018-09-05T22:40:41.207Z,16.47
2018-09-05T22:43:20.918Z,17.13
2018-09-05T22:47:04.070Z,17.87
2018-09-05T22:51:52.838Z,17.97
2018-09-05T22:54:40.927Z,17.43
2018-09-05T22:57:28.352Z,16.73
2018-09-05T23:00:06.823Z,17.70
2018-09-05T23:02:48.378Z,17.50
2018-09-05T23:05:26.781Z,18.20
2018-09-05T23:08:40.730Z,19.03
2018-09-05T23:11:20.723Z,20.77
2018-09-05T23:14:00.439Z,19.77
2018-09-05T23:16:40.405Z,19.63
2018-09-05T23:19:29.208Z,18.87
2018-09-05T23:21:57.587Z,20.03
2018-09-05T23:24:25.870Z,21.90
2018-09-05T23:26:54.178Z,19.93
2018-09-05T23:29:22.606Z,20.93
2018-09-05T23:31:50.922Z,20.43
2018-09-05T23:34:19.232Z,22.47
2018-09-05T23:36:47.552Z,23.47
2018-09-05T23:39:15.996Z,23.93
2018-09-05T23:41:44.312Z,24.87
2018-09-05T23:44:12.648Z,25.87
2018-09-05T23:46:40.949Z,26.50
2018-09-05T23:49:09.243Z,28.23
2018-09-05T23:51:37.595Z,29.10
2018-09-05T23:54:06.271Z,32.03
2018-09-05T23:56:34.598Z,34.63
2018-09-05T23:59:06.944Z,36.33
